createdAt,value
2018-06-15T00:04:18.475Z,1012.1
2018-06-15T00:09:19.118Z,1012.1
2018-06-15T00:14:18.493Z,1012.2
2018-06-15T00:19:18.345Z,1012.2
2018-06-15T00:24:19.017Z,1012.2
2018-06-15T00:29:18.758Z,1012.2
2018-06-15T00:34:18.678Z,1012.2
2018-06-15T00:39:18.439Z,1012.2
2018-06-15T00:44:18.354Z,1012.2
2018-06-15T00:49:18.508Z,1012.2
2018-06-15T00:54:18.301Z,1012.3
2018-06-15T00:59:18.997Z,1012.3
2018-06-15T01:04:19.019Z,1012.3
2018-06-15T01:09:18.391Z,1012.3
2018-06-15T01:14:18.993Z,1012.3
2018-06-15T01:19:19.200Z,1012.3
2018-06-15T01:24:18.421Z,1012.3
2018-06-15T01:29:18.799Z,1012.3
2018-06-15T01:34:19.048Z,1012.3
2018-06-15T01:39:18.910Z,1012.3
2018-06-15T01:44:18.660Z,1012.3
2018-06-15T01:49:18.407Z,1012.3
2018-06-15T01:54:19.174Z,1012.4
2018-06-15T01:59:18.996Z,1012.4
2018-06-15T02:04:18.955Z,1012.4
2018-06-15T02:09:18.520Z,1012.4
2018-06-15T02:14:18.423Z,1012.5
2018-06-15T02:19:19.246Z,1012.5
2018-06-15T02:24:18.536Z,1012.5
2018-06-15T02:29:19.219Z,1012.5
2018-06-15T02:34:19.128Z,1012.5
2018-06-15T02:39:18.957Z,1012.5
2018-06-15T02:44:19.190Z,1012.6
2018-06-15T02:49:18.467Z,1012.6
2018-06-15T02:54:19.158Z,1012.6
2018-06-15T02:59:18.909Z,1012.6
2018-06-15T03:04:19.443Z,1012.6
2018-06-15T03:09:18.593Z,1012.6
2018-06-15T03:14:18.326Z,1012.7
2018-06-15T03:19:19.174Z,1012.7
2018-06-15T03:24:19.057Z,1012.8
2018-06-15T03:29:18.973Z,1012.8
2018-06-15T03:34:18.900Z,1012.9
2018-06-15T03:39:18.695Z,1012.9
2018-06-15T03:44:18.771Z,1013
2018-06-15T03:49:18.683Z,1013
2018-06-15T03:54:18.487Z,1013.1
2018-06-15T03:59:19.245Z,1013.1
2018-06-15T04:04:19.255Z,1013.2
2018-06-15T04:09:18.666Z,1013.2
2018-06-15T04:14:18.442Z,1013.3
2018-06-15T04:19:19.347Z,1013.3
2018-06-15T04:24:19.109Z,1013.4
2018-06-15T04:29:19.114Z,1013.4
2018-06-15T04:34:19.204Z,1013.4
2018-06-15T04:39:18.463Z,1013.4
2018-06-15T04:44:19.270Z,1013.6
2018-06-15T04:49:18.986Z,1013.6
2018-06-15T04:54:18.858Z,1013.7
2018-06-15T04:59:18.832Z,1013.7
2018-06-15T05:04:18.755Z,1013.7
2018-06-15T05:09:18.998Z,1013.7
2018-06-15T05:14:18.977Z,1013.7
2018-06-15T05:19:18.865Z,1013.7
2018-06-15T05:24:18.584Z,1013.6
2018-06-15T05:29:19.397Z,1013.6
2018-06-15T05:34:19.185Z,1013.7
2018-06-15T05:39:18.987Z,1013.7
2018-06-15T05:44:18.822Z,1013.8
2018-06-15T05:49:18.626Z,1013.8
2018-06-15T05:54:19.578Z,1014.1
2018-06-15T05:59:19.413Z,1014.1
2018-06-15T06:04:18.780Z,1014.2
2018-06-15T06:09:18.821Z,1014.2
2018-06-15T06:14:19.134Z,1014.2
2018-06-15T06:19:19.789Z,1014.2
2018-06-15T06:24:18.615Z,1014.2
2018-06-15T06:29:19.536Z,1014.2
2018-06-15T06:34:19.346Z,1014.2
2018-06-15T06:39:19.227Z,1014.2
2018-06-15T06:44:19.025Z,1014.3
2018-06-15T06:49:18.930Z,1014.3
2018-06-15T06:54:18.712Z,1014.4
2018-06-15T06:59:19.459Z,1014.4
2018-06-15T07:04:19.257Z,1014.5
2018-06-15T07:09:19.245Z,1014.5
2018-06-15T07:14:19.105Z,1014.7
2018-06-15T07:19:18.927Z,1014.7
2018-06-15T07:24:18.742Z,1014.6
2018-06-15T07:29:19.576Z,1014.6
2018-06-15T07:34:19.611Z,1014.6
2018-06-15T07:39:19.688Z,1014.6
2018-06-15T07:44:19.628Z,1014.7
2018-06-15T07:49:19.496Z,1014.7
2018-06-15T07:54:19.357Z,1014.7
2018-06-15T07:59:19.299Z,1014.7
2018-06-15T08:04:19.200Z,1014.7
2018-06-15T08:09:19.707Z,1014.7
2018-06-15T08:14:19.544Z,1014.7
2018-06-15T08:19:19.441Z,1014.7
2018-06-15T08:24:19.308Z,1014.7
2018-06-15T08:29:19.152Z,1014.7
2018-06-15T08:34:19.176Z,1014.6
2018-06-15T08:39:19.053Z,1014.6
2018-06-15T08:44:19.035Z,1014.7
2018-06-15T08:49:18.806Z,1014.7
2018-06-15T08:54:19.629Z,1014.7
2018-06-15T08:59:19.455Z,1014.7
2018-06-15T09:04:19.351Z,1014.7
2018-06-15T09:09:19.310Z,1014.7
2018-06-15T09:14:19.133Z,1014.7
2018-06-15T09:19:18.973Z,1014.7
2018-06-15T09:24:18.774Z,1014.7
2018-06-15T09:29:19.573Z,1014.7
2018-06-15T09:34:19.401Z,1014.7
2018-06-15T09:39:19.292Z,1014.7
2018-06-15T09:44:18.975Z,1014.7
2018-06-15T09:49:19.777Z,1014.7
2018-06-15T09:54:19.421Z,1014.7
2018-06-15T09:59:19.162Z,1014.7
2018-06-15T10:04:19.043Z,1014.7
2018-06-15T10:09:19.364Z,1014.7
2018-06-15T10:14:19.121Z,1014.8
2018-06-15T10:19:18.983Z,1014.8
2018-06-15T10:24:18.954Z,1014.8
2018-06-15T10:29:19.740Z,1014.8
2018-06-15T10:34:19.636Z,1014.8
2018-06-15T10:39:19.451Z,1014.8
2018-06-15T10:44:19.410Z,1014.8
2018-06-15T10:49:19.399Z,1014.8
2018-06-15T10:54:19.137Z,1014.8
2018-06-15T10:59:19.171Z,1014.8
2018-06-15T11:04:19.313Z,1014.8
2018-06-15T11:09:20.073Z,1014.8
2018-06-15T11:14:18.858Z,1014.7
2018-06-15T11:19:19.855Z,1014.7
2018-06-15T11:24:19.765Z,1014.6
2018-06-15T11:29:19.691Z,1014.6
2018-06-15T11:34:19.576Z,1014.6
2018-06-15T11:39:19.787Z,1014.6
2018-06-15T11:44:19.725Z,1014.6
2018-06-15T11:49:19.472Z,1014.6
2018-06-15T11:54:19.324Z,1014.6
2018-06-15T11:59:19.167Z,1014.6
2018-06-15T12:04:19.043Z,1014.6
2018-06-15T12:09:19.677Z,1014.6
2018-06-15T12:14:19.525Z,1014.6
2018-06-15T12:19:19.293Z,1014.6
2018-06-15T12:24:19.091Z,1014.5
2018-06-15T12:29:19.909Z,1014.5
2018-06-15T12:34:19.855Z,1014.5
2018-06-15T12:39:19.907Z,1014.5
2018-06-15T12:44:19.818Z,1014.6
2018-06-15T12:49:19.960Z,1014.6
2018-06-15T12:54:19.813Z,1014.6
2018-06-15T12:59:19.780Z,1014.6
2018-06-15T13:04:19.721Z,1014.6
2018-06-15T13:09:20.385Z,1014.6
2018-06-15T13:14:19.705Z,1014.6
2018-06-15T13:19:19.660Z,1014.6
2018-06-15T13:24:19.199Z,1014.5
2018-06-15T13:29:19.932Z,1014.5
2018-06-15T13:34:20.021Z,1014.5
2018-06-15T13:39:19.870Z,1014.5
2018-06-15T13:44:20.033Z,1014.5
2018-06-15T13:49:20.053Z,1014.5
2018-06-15T13:54:19.937Z,1014.4
2018-06-15T13:59:19.151Z,1014.4
2018-06-15T14:04:19.197Z,1014.4
2018-06-15T14:09:20.095Z,1014.4
2018-06-15T14:14:19.173Z,1014.3
2018-06-15T14:19:19.966Z,1014.3
2018-06-15T14:24:19.931Z,1014.3
2018-06-15T14:29:19.984Z,1014.3
2018-06-15T14:34:19.910Z,1014.3
2018-06-15T14:39:19.314Z,1014.3
2018-06-15T14:44:19.262Z,1014.3
2018-06-15T14:49:19.312Z,1014.3
2018-06-15T14:54:19.173Z,1014.3
2018-06-15T14:59:20.032Z,1014.3
2018-06-15T15:04:20.031Z,1014.3
2018-06-15T15:09:20.108Z,1014.3
2018-06-15T15:14:19.659Z,1014.4
2018-06-15T15:19:19.595Z,1014.4
2018-06-15T15:24:19.638Z,1014.4
2018-06-15T15:29:19.410Z,1014.4
2018-06-15T15:34:19.330Z,1014.4
2018-06-15T15:39:19.163Z,1014.4
2018-06-15T15:44:20.008Z,1014.3
2018-06-15T15:49:19.866Z,1014.3
2018-06-15T15:54:19.882Z,1014.3
2018-06-15T15:59:19.649Z,1014.3
2018-06-15T16:04:19.695Z,1014.3
2018-06-15T16:09:20.421Z,1014.3
2018-06-15T16:14:19.313Z,1014.3
2018-06-15T16:19:19.400Z,1014.3
2018-06-15T16:24:19.350Z,1014.2
2018-06-15T16:29:19.273Z,1014.2
2018-06-15T16:34:19.348Z,1014.2
2018-06-15T16:39:20.174Z,1014.2
2018-06-15T16:44:19.940Z,1014.3
2018-06-15T16:49:19.779Z,1014.3
2018-06-15T16:54:19.562Z,1014.2
2018-06-15T16:59:19.350Z,1014.2
2018-06-15T17:04:20.343Z,1014.2
2018-06-15T17:09:19.729Z,1014.2
2018-06-15T17:14:19.689Z,1014.1
2018-06-15T17:19:19.607Z,1014.1
2018-06-15T17:24:19.446Z,1014.1
2018-06-15T17:29:20.172Z,1014.1
2018-06-15T17:34:20.076Z,1014.1
2018-06-15T17:39:19.849Z,1014.1
2018-06-15T17:44:19.617Z,1014.2
2018-06-15T17:49:19.384Z,1014.2
2018-06-15T17:54:20.264Z,1014.4
2018-06-15T17:59:20.104Z,1014.4
2018-06-15T18:04:20.021Z,1014.4
2018-06-15T18:09:20.039Z,1014.4
2018-06-15T18:14:19.425Z,1014.3
2018-06-15T18:19:20.352Z,1014.3
2018-06-15T18:24:20.213Z,1014.5
2018-06-15T18:29:20.037Z,1014.5
2018-06-15T18:34:20.064Z,1014.5
2018-06-15T18:39:19.899Z,1014.5
2018-06-15T18:44:19.784Z,1014.6
2018-06-15T18:49:19.554Z,1014.6
2018-06-15T18:54:20.292Z,1014.7
2018-06-15T18:59:20.308Z,1014.7
2018-06-15T19:04:20.165Z,1014.7
2018-06-15T19:09:20.076Z,1014.7
2018-06-15T19:14:19.826Z,1014.7
2018-06-15T19:19:19.638Z,1014.7
2018-06-15T19:24:19.603Z,1014.7
2018-06-15T19:29:19.402Z,1014.7
2018-06-15T19:34:20.344Z,1014.7
2018-06-15T19:39:20.241Z,1014.7
2018-06-15T19:44:20.204Z,1014.7
2018-06-15T19:49:19.984Z,1014.7
2018-06-15T19:54:19.851Z,1014.8
2018-06-15T19:59:19.667Z,1014.8
2018-06-15T20:04:20.550Z,1014.8
2018-06-15T20:09:20.433Z,1014.8
2018-06-15T20:14:19.501Z,1014.7
2018-06-15T20:19:20.038Z,1014.7
2018-06-15T20:24:19.779Z,1014.8
2018-06-15T20:29:19.627Z,1014.8
2018-06-15T20:34:20.448Z,1014.8
2018-06-15T20:39:20.382Z,1014.8
2018-06-15T20:44:20.225Z,1014.8
2018-06-15T20:49:20.060Z,1014.8
2018-06-15T20:54:19.893Z,1014.8
2018-06-15T20:59:19.748Z,1014.8
2018-06-15T21:04:19.760Z,1014.8
2018-06-15T21:09:19.721Z,1014.8
2018-06-15T21:14:20.230Z,1014.7
2018-06-15T21:19:19.988Z,1014.7
2018-06-15T21:24:19.643Z,1014.7
2018-06-15T21:29:20.427Z,1014.7
2018-06-15T21:34:20.272Z,1014.7
2018-06-15T21:39:20.155Z,1014.7
2018-06-15T21:44:19.964Z,1014.6
2018-06-15T21:49:19.831Z,1014.6
2018-06-15T21:54:19.611Z,1014.5
2018-06-15T21:59:20.388Z,1014.5
2018-06-15T22:04:20.168Z,1014.5
2018-06-15T22:09:20.060Z,1014.5
2018-06-15T22:14:20.418Z,1014.4
2018-06-15T22:19:20.262Z,1014.4
2018-06-15T22:24:20.165Z,1014.5
2018-06-15T22:29:20.035Z,1014.5
2018-06-15T22:34:19.975Z,1014.7
2018-06-15T22:39:19.757Z,1014.7
2018-06-15T22:44:20.566Z,1014.7
2018-06-15T22:49:20.504Z,1014.7
2018-06-15T22:54:20.462Z,1014.7
2018-06-15T22:59:20.611Z,1014.7
2018-06-15T23:04:20.736Z,1014.7
2018-06-15T23:09:20.582Z,1014.7
2018-06-15T23:14:20.559Z,1014.7
2018-06-15T23:19:20.149Z,1014.7
2018-06-15T23:24:19.940Z,1014.6
2018-06-15T23:29:19.829Z,1014.6
2018-06-15T23:34:20.820Z,1014.6
2018-06-15T23:39:20.753Z,1014.6
2018-06-15T23:44:20.565Z,1014.7
2018-06-15T23:49:20.422Z,1014.7
2018-06-15T23:54:20.319Z,1014.6
2018-06-15T23:59:20.398Z,1014.6
